createdAt,value
2022-08-14T00:01:15.368Z,1.10
2022-08-14T00:06:29.020Z,1.25
2022-08-14T00:11:34.595Z,1.30
2022-08-14T00:21:49.925Z,1.35
2022-08-14T00:26:55.682Z,1.40
2022-08-14T00:31:59.368Z,1.40
2022-08-14T00:37:03.179Z,1.40
2022-08-14T00:42:21.073Z,1.30
2022-08-14T00:47:26.909Z,1.30
2022-08-14T00:52:32.131Z,1.30
2022-08-14T00:57:40.357Z,1.40
2022-08-14T01:02:46.604Z,1.30
2022-08-14T01:07:59.523Z,1.40
2022-08-14T01:13:04.725Z,1.30
2022-08-14T01:18:25.750Z,1.20
2022-08-14T01:23:41.931Z,1.30
2022-08-14T01:28:57.633Z,1.17
2022-08-14T01:35:18.266Z,1.30
2022-08-14T01:39:32.486Z,1.27
2022-08-14T01:44:38.949Z,1.25
2022-08-14T01:49:46.033Z,1.25
2022-08-14T01:55:06.784Z,1.20
2022-08-14T02:00:16.790Z,1.23
2022-08-14T02:05:22.006Z,1.23
2022-08-14T02:10:29.104Z,1.17
2022-08-14T02:20:37.399Z,1.30
2022-08-14T02:25:44.301Z,1.50
2022-08-14T02:30:59.985Z,1.38
2022-08-14T02:36:35.863Z,1.20
2022-08-14T02:41:30.989Z,1.30
2022-08-14T02:46:44.781Z,1.30
2022-08-14T02:51:54.420Z,1.20
2022-08-14T03:02:33.368Z,1.17
2022-08-14T03:07:45.206Z,1.20
2022-08-14T03:12:50.283Z,1.30
2022-08-14T03:17:57.875Z,1.25
2022-08-14T03:23:03.166Z,1.20
2022-08-14T03:28:14.555Z,1.30
2022-08-14T03:33:40.351Z,1.20
2022-08-14T03:39:14.853Z,1.17
2022-08-14T03:45:20.110Z,1.25
2022-08-14T03:49:42.170Z,1.20
2022-08-14T03:54:52.258Z,1.30
2022-08-14T03:59:57.924Z,1.20
2022-08-14T04:05:11.935Z,1.10
2022-08-14T04:10:17.512Z,1.20
2022-08-14T04:15:31.865Z,1.40
2022-08-14T04:20:56.887Z,1.13
2022-08-14T04:26:01.297Z,1.30
2022-08-14T04:31:06.773Z,1.20
2022-08-14T04:36:16.025Z,1.10
2022-08-14T04:41:39.097Z,1.13
2022-08-14T04:47:02.481Z,1.30
2022-08-14T04:52:15.159Z,1.20
2022-08-14T05:02:28.553Z,1.20
2022-08-14T05:07:33.913Z,1.20
2022-08-14T05:13:11.798Z,1.10
2022-08-14T05:19:17.192Z,1.30
2022-08-14T05:23:44.903Z,1.30
2022-08-14T05:28:50.277Z,1.20
2022-08-14T05:33:57.186Z,1.20
2022-08-14T05:39:00.969Z,1.30
2022-08-14T05:44:06.736Z,1.40
2022-08-14T05:49:12.177Z,1.23
2022-08-14T05:54:26.729Z,1.33
2022-08-14T05:59:38.620Z,1.20
2022-08-14T06:04:48.299Z,1.27
2022-08-14T06:09:53.832Z,1.20
2022-08-14T06:14:57.508Z,1.20
2022-08-14T06:20:03.141Z,1.20
2022-08-14T06:25:10.867Z,1.30
2022-08-14T06:30:41.868Z,1.20
2022-08-14T06:35:51.527Z,1.30
2022-08-14T06:40:55.293Z,1.30
2022-08-14T06:46:03.225Z,1.38
2022-08-14T06:51:08.522Z,1.25
2022-08-14T06:56:15.585Z,1.30
2022-08-14T07:01:36.893Z,1.23
2022-08-14T07:06:45.666Z,1.40
2022-08-14T07:11:50.765Z,1.40
2022-08-14T07:16:54.853Z,1.33
2022-08-14T07:22:00.217Z,1.40
2022-08-14T07:27:09.509Z,1.50
2022-08-14T07:32:13.337Z,1.40
2022-08-14T07:37:27.322Z,1.30
2022-08-14T07:42:31.745Z,1.38
2022-08-14T07:47:35.642Z,1.45
2022-08-14T07:52:41.209Z,1.40
2022-08-14T07:57:48.578Z,1.50
2022-08-14T08:02:57.221Z,1.40
2022-08-14T08:08:08.447Z,1.38
2022-08-14T08:13:34.997Z,1.38
2022-08-14T08:18:43.131Z,1.35
2022-08-14T08:23:51.391Z,1.40
2022-08-14T08:28:59.035Z,1.30
2022-08-14T08:34:07.647Z,1.30
2022-08-14T08:39:22.889Z,1.40
2022-08-14T08:44:34.515Z,1.33
2022-08-14T08:49:58.868Z,1.30
2022-08-14T08:55:05.690Z,1.30
2022-08-14T09:00:24.251Z,1.30
2022-08-14T09:05:29.965Z,1.30
2022-08-14T09:10:37.338Z,1.30
2022-08-14T09:15:44.983Z,1.30
2022-08-14T09:20:54.813Z,1.20
2022-08-14T09:26:05.109Z,1.23
2022-08-14T09:31:27.225Z,1.30
2022-08-14T09:37:22.318Z,1.27
2022-08-14T09:42:52.540Z,1.20
2022-08-14T09:47:58.791Z,1.20
2022-08-14T09:53:17.742Z,1.30
2022-08-14T09:58:24.804Z,1.20
2022-08-14T10:03:33.878Z,1.20
2022-08-14T10:08:51.791Z,1.10
2022-08-14T10:14:02.566Z,1.10
2022-08-14T10:19:09.716Z,1.27
2022-08-14T10:24:36.159Z,1.20
2022-08-14T10:29:48.937Z,1.25
2022-08-14T10:34:53.115Z,1.40
2022-08-14T10:40:05.277Z,1.33
2022-08-14T10:45:25.631Z,1.33
2022-08-14T10:50:36.290Z,1.27
2022-08-14T10:55:45.440Z,1.20
2022-08-14T11:01:00.726Z,1.30
2022-08-14T11:06:20.240Z,1.30
2022-08-14T11:11:28.511Z,1.10
2022-08-14T11:16:53.210Z,1.20
2022-08-14T11:21:59.923Z,1.20
2022-08-14T11:27:05.637Z,1.33
2022-08-14T11:32:11.174Z,1.30
2022-08-14T11:37:18.702Z,1.10
2022-08-14T11:43:07.895Z,1.20
2022-08-14T11:48:13.161Z,1.30
2022-08-14T11:53:31.373Z,1.20
2022-08-14T11:58:39.132Z,1.42
2022-08-14T12:03:56.875Z,1.20
2022-08-14T12:09:01.393Z,1.17
2022-08-14T12:14:30.926Z,1.40
2022-08-14T12:19:58.712Z,1.10
2022-08-14T12:25:07.131Z,1.30
2022-08-14T12:30:21.071Z,1.35
2022-08-14T12:35:43.082Z,1.25
2022-08-14T12:40:52.578Z,1.30
2022-08-14T12:45:58.032Z,1.20
2022-08-14T12:51:03.759Z,1.40
2022-08-14T12:56:21.691Z,1.40
2022-08-14T13:01:59.738Z,1.20
2022-08-14T13:07:08.837Z,1.40
2022-08-14T13:12:33.368Z,1.30
2022-08-14T13:17:44.187Z,1.30
2022-08-14T13:22:50.253Z,1.30
2022-08-14T13:28:00.251Z,1.30
2022-08-14T13:33:06.927Z,1.17
2022-08-14T13:38:22.973Z,1.20
2022-08-14T13:43:31.708Z,1.13
2022-08-14T13:48:41.459Z,1.20
2022-08-14T13:54:08.386Z,1.10
2022-08-14T13:59:20.485Z,1.30
2022-08-14T14:04:46.377Z,1.10
2022-08-14T14:09:56.962Z,1.30
2022-08-14T14:15:05.427Z,1.02
2022-08-14T14:20:15.088Z,1.30
2022-08-14T14:25:51.169Z,1.20
2022-08-14T14:31:06.621Z,1.10
2022-08-14T14:36:13.966Z,1.20
2022-08-14T14:41:21.213Z,1.00
2022-08-14T14:46:36.219Z,1.13
2022-08-14T14:51:43.399Z,1.30
2022-08-14T14:56:52.097Z,1.10
2022-08-14T15:02:08.197Z,1.20
2022-08-14T15:07:16.240Z,1.20
2022-08-14T15:12:55.917Z,1.20
2022-08-14T15:17:45.385Z,1.10
2022-08-14T15:22:51.767Z,1.27
2022-08-14T15:27:57.242Z,1.20
2022-08-14T15:33:02.626Z,1.35
2022-08-14T15:38:08.993Z,1.20
2022-08-14T15:43:14.770Z,1.10
2022-08-14T15:48:22.187Z,1.23
2022-08-14T15:53:26.641Z,1.20
2022-08-14T15:58:37.873Z,1.20
2022-08-14T16:03:46.373Z,1.30
2022-08-14T16:08:58.761Z,1.20
2022-08-14T16:14:06.944Z,1.20
2022-08-14T16:19:11.443Z,1.30
2022-08-14T16:24:27.563Z,1.17
2022-08-14T16:29:38.043Z,1.30
2022-08-14T16:34:44.028Z,1.30
2022-08-14T16:39:53.839Z,1.20
2022-08-14T16:45:01.508Z,1.23
2022-08-14T16:50:11.211Z,1.20
2022-08-14T16:55:17.716Z,1.27
2022-08-14T17:00:43.525Z,1.10
2022-08-14T17:05:48.246Z,1.40
2022-08-14T17:11:11.149Z,1.40
2022-08-14T17:16:24.682Z,1.30
2022-08-14T17:21:37.408Z,1.35
2022-08-14T17:26:45.699Z,1.35
2022-08-14T17:32:02.070Z,1.20
2022-08-14T17:37:06.862Z,1.30
2022-08-14T17:42:32.755Z,1.15
2022-08-14T17:47:39.078Z,1.40
2022-08-14T17:52:48.887Z,1.40
2022-08-14T18:03:00.197Z,1.30
2022-08-14T18:08:34.375Z,1.37
2022-08-14T18:13:50.212Z,1.30
2022-08-14T18:18:57.366Z,1.30
2022-08-14T18:24:01.028Z,1.30
2022-08-14T18:29:14.726Z,1.40
2022-08-14T18:34:30.808Z,1.27
2022-08-14T18:40:03.401Z,1.30
2022-08-14T18:45:12.874Z,1.50
2022-08-14T18:50:31.347Z,1.27
2022-08-14T18:56:00.045Z,1.50
2022-08-14T19:01:25.564Z,1.40
2022-08-14T19:06:55.981Z,1.38
2022-08-14T19:12:00.758Z,1.30
2022-08-14T19:17:04.541Z,1.60
2022-08-14T19:22:29.473Z,1.48
2022-08-14T19:27:37.665Z,1.40
2022-08-14T19:32:41.987Z,1.55
2022-08-14T19:37:52.630Z,1.50
2022-08-14T19:42:59.338Z,1.48
2022-08-14T19:48:03.804Z,1.55
2022-08-14T19:53:17.458Z,1.48
2022-08-14T19:58:27.853Z,1.60
2022-08-14T20:04:00.801Z,1.50
2022-08-14T20:11:04.106Z,1.45
2022-08-14T20:14:38.006Z,1.55
2022-08-14T20:19:42.623Z,1.48
2022-08-14T20:24:50.101Z,1.50
2022-08-14T20:30:35.143Z,1.38
2022-08-14T20:35:43.604Z,1.65
2022-08-14T20:40:55.207Z,1.50
2022-08-14T20:45:59.602Z,1.65
2022-08-14T20:51:24.294Z,1.55
2022-08-14T20:56:37.077Z,1.60
2022-08-14T21:01:43.846Z,1.50
2022-08-14T21:12:35.077Z,1.60
2022-08-14T21:17:37.272Z,1.50
2022-08-14T21:22:44.689Z,1.50
2022-08-14T21:27:57.493Z,1.50
2022-08-14T21:33:04.556Z,1.50
2022-08-14T21:38:16.896Z,1.35
2022-08-14T21:43:31.673Z,1.50
2022-08-14T21:48:37.897Z,1.60
2022-08-14T21:53:58.018Z,1.60
2022-08-14T21:59:04.593Z,1.30
2022-08-14T22:04:33.260Z,1.50
2022-08-14T22:09:36.594Z,1.60
2022-08-14T22:14:43.723Z,1.50
2022-08-14T22:19:54.678Z,1.63
2022-08-14T22:25:01.083Z,1.70
2022-08-14T22:30:13.803Z,1.75
2022-08-14T22:35:23.880Z,1.67
2022-08-14T22:40:58.400Z,1.63
2022-08-14T22:45:55.479Z,1.70
2022-08-14T22:51:01.495Z,1.50
2022-08-14T22:56:05.597Z,1.70
2022-08-14T23:01:55.763Z,1.50
2022-08-14T23:07:03.555Z,1.50
2022-08-14T23:12:25.754Z,1.70
2022-08-14T23:17:40.514Z,1.40
2022-08-14T23:22:52.454Z,1.67
2022-08-14T23:28:04.727Z,1.50
2022-08-14T23:33:16.490Z,1.60
2022-08-14T23:38:30.314Z,1.45
2022-08-14T23:43:35.204Z,1.50
2022-08-14T23:48:40.585Z,1.73
2022-08-14T23:53:53.222Z,1.60
2022-08-14T23:58:57.636Z,1.35
